createdAt,value
2019-06-08T00:01:20.485Z,20.70
2019-06-08T00:03:53.421Z,23.47
2019-06-08T00:06:26.110Z,29.35
2019-06-08T00:08:58.815Z,39.18
2019-06-08T00:11:32.709Z,27.10
2019-06-08T00:14:05.140Z,31.62
2019-06-08T00:16:38.035Z,32.78
2019-06-08T00:19:10.795Z,27.50
2019-06-08T00:21:43.538Z,20.75
2019-06-08T00:24:16.065Z,25.25
2019-06-08T00:26:48.777Z,27.20
2019-06-08T00:29:22.426Z,21.67
2019-06-08T00:31:55.309Z,28.15
2019-06-08T00:34:27.870Z,26.62
2019-06-08T00:37:01.155Z,25.77
2019-06-08T00:39:33.640Z,24.90
2019-06-08T00:42:06.421Z,20.52
2019-06-08T00:44:39.140Z,25.77
2019-06-08T00:47:11.630Z,21.47
2019-06-08T00:49:45.430Z,22.13
2019-06-08T00:52:18.871Z,22.77
2019-06-08T00:54:51.751Z,20.93
2019-06-08T00:57:24.271Z,24.10
2019-06-08T00:59:56.885Z,24.90
2019-06-08T01:02:29.540Z,21.60
2019-06-08T01:05:02.200Z,22.30
2019-06-08T01:07:35.115Z,20.70
2019-06-08T01:10:11.095Z,22.30
2019-06-08T01:12:44.095Z,18.82
2019-06-08T01:15:23.570Z,26.10
2019-06-08T01:18:02.048Z,24.40
2019-06-08T01:20:25.762Z,23.40
2019-06-08T01:22:58.385Z,21.90
2019-06-08T01:25:30.990Z,24.07
2019-06-08T01:28:04.623Z,24.93
2019-06-08T01:30:37.295Z,21.00
2019-06-08T01:33:11.098Z,20.60
2019-06-08T01:35:43.635Z,21.67
2019-06-08T01:38:16.390Z,23.00
2019-06-08T01:40:48.971Z,19.07
2019-06-08T01:43:21.930Z,24.15
2019-06-08T01:45:54.590Z,28.87
2019-06-08T01:48:28.208Z,23.98
2019-06-08T01:51:01.166Z,21.75
2019-06-08T01:53:33.850Z,18.67
2019-06-08T01:56:06.390Z,22.70
2019-06-08T01:58:39.064Z,24.00
2019-06-08T02:01:11.896Z,22.70
2019-06-08T02:03:44.711Z,25.73
2019-06-08T02:06:18.482Z,25.63
2019-06-08T02:08:51.238Z,20.93
2019-06-08T02:11:24.528Z,26.00
2019-06-08T02:14:00.035Z,26.80
2019-06-08T02:16:33.965Z,23.42
2019-06-08T02:19:06.654Z,25.50
2019-06-08T02:21:40.630Z,27.50
2019-06-08T02:24:14.945Z,26.93
2019-06-08T02:26:59.973Z,31.43
2019-06-08T02:29:35.679Z,25.77
2019-06-08T02:32:24.120Z,22.60
2019-06-08T02:35:07.601Z,29.47
2019-06-08T02:37:42.151Z,22.03
2019-06-08T02:40:17.156Z,25.20
2019-06-08T02:42:51.376Z,23.73
2019-06-08T02:45:34.644Z,27.73
2019-06-08T02:48:17.077Z,27.73
2019-06-08T02:50:57.192Z,29.87
2019-06-08T02:53:33.622Z,24.50
2019-06-08T02:56:23.550Z,27.63
2019-06-08T02:59:00.335Z,32.73
2019-06-08T03:01:38.282Z,25.80
2019-06-08T03:04:41.321Z,29.17
2019-06-08T03:07:17.816Z,28.23
2019-06-08T03:10:08.517Z,28.50
2019-06-08T03:12:44.640Z,28.13
2019-06-08T03:15:34.505Z,32.83
2019-06-08T03:18:09.300Z,32.37
2019-06-08T03:20:51.316Z,25.50
2019-06-08T03:23:25.432Z,33.83
2019-06-08T03:25:59.681Z,31.42
2019-06-08T03:28:44.041Z,30.13
2019-06-08T03:31:16.369Z,30.15
2019-06-08T03:33:54.850Z,27.52
2019-06-08T03:36:23.461Z,36.85
2019-06-08T03:38:56.112Z,30.40
2019-06-08T03:41:28.896Z,35.15
2019-06-08T03:44:01.748Z,29.65
2019-06-08T03:46:36.243Z,29.60
2019-06-08T03:49:09.252Z,28.80
2019-06-08T03:51:46.071Z,35.10
2019-06-08T03:54:16.027Z,31.50
2019-06-08T03:56:48.745Z,35.88
2019-06-08T03:59:21.572Z,33.13
2019-06-08T04:01:54.165Z,34.83
2019-06-08T04:04:28.048Z,39.40
2019-06-08T04:07:00.559Z,45.15
2019-06-08T04:09:34.402Z,41.65
2019-06-08T04:12:07.351Z,39.80
2019-06-08T04:14:39.992Z,41.35
2019-06-08T04:17:12.625Z,42.40
2019-06-08T04:20:06.332Z,41.50
2019-06-08T04:22:19.726Z,37.55
2019-06-08T04:24:52.307Z,47.80
2019-06-08T04:27:24.845Z,39.38
2019-06-08T04:29:57.466Z,36.70
2019-06-08T04:32:30.135Z,44.40
2019-06-08T04:35:02.918Z,37.80
2019-06-08T04:37:35.402Z,53.90
2019-06-08T04:40:08.996Z,35.20
2019-06-08T04:42:43.928Z,32.48
2019-06-08T04:45:16.625Z,43.00
2019-06-08T04:47:50.126Z,33.20
2019-06-08T04:50:24.309Z,43.23
2019-06-08T04:52:57.319Z,37.13
2019-06-08T04:55:30.056Z,33.00
2019-06-08T04:58:02.837Z,37.05
2019-06-08T05:00:35.556Z,49.08
2019-06-08T05:03:08.656Z,39.25
2019-06-08T05:05:43.203Z,41.35
2019-06-08T05:08:15.435Z,38.58
2019-06-08T05:10:49.719Z,39.53
2019-06-08T05:13:22.801Z,36.65
2019-06-08T05:15:55.397Z,37.83
2019-06-08T05:18:28.196Z,40.52
2019-06-08T05:21:00.821Z,37.83
2019-06-08T05:23:33.820Z,40.55
2019-06-08T05:26:06.515Z,41.33
2019-06-08T05:28:39.151Z,44.15
2019-06-08T05:31:11.885Z,39.08
2019-06-08T05:33:45.489Z,37.28
2019-06-08T05:36:18.300Z,37.42
2019-06-08T05:38:50.995Z,33.28
2019-06-08T05:41:24.216Z,37.35
2019-06-08T05:43:57.551Z,39.92
2019-06-08T05:46:30.290Z,39.55
2019-06-08T05:49:02.739Z,33.65
2019-06-08T05:51:35.845Z,36.55
2019-06-08T05:54:09.778Z,35.17
2019-06-08T05:56:43.795Z,33.42
2019-06-08T05:59:16.661Z,34.53
2019-06-08T06:01:50.845Z,34.48
2019-06-08T06:04:23.940Z,34.50
2019-06-08T06:06:56.430Z,32.45
2019-06-08T06:09:29.071Z,34.80
2019-06-08T06:12:01.998Z,35.60
2019-06-08T06:14:36.902Z,28.80
2019-06-08T06:17:09.635Z,33.25
2019-06-08T06:19:42.997Z,41.28
2019-06-08T06:22:16.030Z,29.50
2019-06-08T06:24:49.716Z,32.25
2019-06-08T06:27:22.645Z,32.33
2019-06-08T06:29:55.450Z,29.57
2019-06-08T06:32:28.365Z,35.98
2019-06-08T06:35:01.394Z,27.48
2019-06-08T06:37:34.260Z,25.20
2019-06-08T06:40:10.975Z,30.45
2019-06-08T06:42:43.901Z,37.63
2019-06-08T06:45:16.826Z,25.92
2019-06-08T06:47:50.460Z,27.58
2019-06-08T06:50:23.565Z,30.20
2019-06-08T06:52:56.361Z,30.25
2019-06-08T06:55:28.935Z,26.68
2019-06-08T06:58:01.649Z,30.15
2019-06-08T07:00:35.365Z,39.48
2019-06-08T07:03:08.052Z,27.87
2019-06-08T07:05:40.710Z,30.77
2019-06-08T07:08:13.305Z,30.80
2019-06-08T07:10:46.589Z,27.17
2019-06-08T07:13:19.716Z,31.75
2019-06-08T07:15:56.004Z,28.17
2019-06-08T07:18:27.285Z,47.35
2019-06-08T07:20:59.880Z,24.63
2019-06-08T07:23:32.480Z,28.52
2019-06-08T07:26:05.285Z,26.30
2019-06-08T07:28:38.205Z,27.73
2019-06-08T07:31:10.876Z,30.90
2019-06-08T07:33:43.491Z,25.05
2019-06-08T07:36:16.260Z,29.72
2019-06-08T07:38:49.977Z,32.98
2019-06-08T07:41:23.051Z,23.70
2019-06-08T07:43:56.580Z,25.65
2019-06-08T07:46:29.604Z,26.85
2019-06-08T07:49:02.215Z,29.82
2019-06-08T07:51:34.875Z,28.70
2019-06-08T07:54:07.432Z,27.35
2019-06-08T07:56:40.215Z,24.65
2019-06-08T07:59:13.180Z,26.45
2019-06-08T08:01:46.116Z,24.40
2019-06-08T08:04:19.090Z,25.15
2019-06-08T08:06:52.467Z,25.27
2019-06-08T08:09:25.201Z,26.85
2019-06-08T08:11:59.578Z,35.05
2019-06-08T08:14:33.206Z,23.00
2019-06-08T08:17:06.201Z,21.35
2019-06-08T08:19:38.871Z,20.25
2019-06-08T08:22:22.157Z,19.25
2019-06-08T08:24:48.303Z,17.62
2019-06-08T08:27:20.227Z,24.12
2019-06-08T08:29:53.264Z,18.75
2019-06-08T08:32:28.300Z,21.85
2019-06-08T08:35:03.009Z,12.00
2019-06-08T08:37:37.908Z,12.98
2019-06-08T08:40:10.671Z,10.78
2019-06-08T08:42:43.480Z,9.50
2019-06-08T08:45:18.855Z,19.90
2019-06-08T08:47:59.998Z,9.93
2019-06-08T08:50:28.167Z,6.20
2019-06-08T08:53:01.243Z,8.48
2019-06-08T08:55:37.826Z,8.08
2019-06-08T08:58:10.085Z,16.40
2019-06-08T09:00:42.670Z,15.38
2019-06-08T09:03:26.053Z,12.23
2019-06-08T09:05:51.974Z,6.83
2019-06-08T09:08:27.774Z,16.35
2019-06-08T09:11:01.670Z,13.18
2019-06-08T09:13:33.836Z,12.07
2019-06-08T09:16:08.029Z,11.25
2019-06-08T09:18:43.091Z,11.75
2019-06-08T09:21:18.343Z,9.43
2019-06-08T09:23:52.299Z,16.32
2019-06-08T09:26:24.632Z,7.30
2019-06-08T09:28:58.389Z,6.25
2019-06-08T09:31:31.150Z,10.00
2019-06-08T09:34:11.041Z,13.68
2019-06-08T09:36:40.710Z,3.85
2019-06-08T09:39:13.593Z,9.00
2019-06-08T09:41:47.960Z,8.10
2019-06-08T09:44:20.978Z,27.50
2019-06-08T09:46:55.136Z,9.80
2019-06-08T09:49:28.315Z,9.90
2019-06-08T09:52:03.241Z,9.00
2019-06-08T09:54:35.440Z,8.50
2019-06-08T09:57:09.069Z,13.15
2019-06-08T09:59:43.161Z,18.32
2019-06-08T10:02:18.439Z,9.30
2019-06-08T10:04:52.396Z,15.70
2019-06-08T10:07:24.946Z,6.17
2019-06-08T10:10:00.326Z,9.75
2019-06-08T10:12:32.161Z,3.85
2019-06-08T10:15:09.047Z,7.62
2019-06-08T10:17:41.904Z,12.28
2019-06-08T10:20:14.976Z,10.55
2019-06-08T10:22:49.914Z,5.65
2019-06-08T10:25:22.370Z,7.22
2019-06-08T10:27:55.138Z,2.62
2019-06-08T10:30:28.395Z,8.48
2019-06-08T10:33:03.866Z,4.03
2019-06-08T10:35:38.227Z,7.42
2019-06-08T10:38:12.026Z,4.42
2019-06-08T10:41:10.897Z,4.20
2019-06-08T10:43:38.577Z,2.95
2019-06-08T10:46:16.577Z,4.00
2019-06-08T10:48:48.425Z,5.97
2019-06-08T10:51:20.181Z,3.05
2019-06-08T10:53:53.486Z,4.47
2019-06-08T10:56:30.902Z,2.85
2019-06-08T10:59:03.284Z,1.50
2019-06-08T11:01:35.436Z,9.55
2019-06-08T11:04:09.389Z,3.83
2019-06-08T11:06:42.246Z,6.08
2019-06-08T11:09:15.689Z,5.22
2019-06-08T11:11:49.286Z,3.25
2019-06-08T11:14:22.887Z,8.43
2019-06-08T11:16:55.841Z,3.62
2019-06-08T11:19:28.413Z,6.67
2019-06-08T11:22:03.758Z,5.05
2019-06-08T11:24:38.618Z,4.85
2019-06-08T11:27:12.868Z,7.05
2019-06-08T11:29:47.620Z,15.83
2019-06-08T11:32:19.027Z,2.22
2019-06-08T11:34:51.609Z,6.42
2019-06-08T11:37:24.100Z,2.40
2019-06-08T11:39:57.666Z,4.30
2019-06-08T11:42:30.530Z,7.37
2019-06-08T11:45:04.427Z,5.08
2019-06-08T11:47:39.162Z,2.87
2019-06-08T11:50:13.372Z,4.67
2019-06-08T11:52:46.186Z,3.62
2019-06-08T11:55:19.055Z,11.38
2019-06-08T11:57:51.680Z,7.17
2019-06-08T12:01:01.778Z,17.42
2019-06-08T12:03:33.611Z,2.55
2019-06-08T12:06:09.444Z,3.77
2019-06-08T12:08:40.902Z,6.05
2019-06-08T12:11:18.209Z,3.60
2019-06-08T12:13:48.030Z,2.15
2019-06-08T12:16:22.324Z,2.83
2019-06-08T12:18:55.125Z,4.03
2019-06-08T12:21:28.055Z,5.33
2019-06-08T12:24:01.809Z,2.87
2019-06-08T12:26:34.675Z,14.28
2019-06-08T12:29:09.940Z,5.72
2019-06-08T12:31:42.149Z,2.50
2019-06-08T12:34:16.218Z,6.40
2019-06-08T12:36:49.312Z,6.30
2019-06-08T12:39:21.881Z,7.45
2019-06-08T12:41:54.996Z,6.72
2019-06-08T12:44:29.149Z,2.55
2019-06-08T12:47:02.240Z,4.30
2019-06-08T12:49:34.841Z,1.98
2019-06-08T12:52:08.687Z,5.20
2019-06-08T12:54:54.140Z,3.35
2019-06-08T12:57:19.918Z,15.88
2019-06-08T12:59:51.572Z,7.53
2019-06-08T13:02:24.429Z,13.18
2019-06-08T13:04:57.171Z,5.42
2019-06-08T13:07:30.255Z,6.95
2019-06-08T13:10:03.073Z,6.50
2019-06-08T13:12:35.860Z,5.10
2019-06-08T13:15:11.055Z,8.83
2019-06-08T13:17:44.405Z,9.33
2019-06-08T13:20:22.069Z,6.55
2019-06-08T13:22:54.575Z,5.25
2019-06-08T13:25:37.355Z,3.00
2019-06-08T13:28:01.715Z,9.58
2019-06-08T13:30:34.370Z,6.95
2019-06-08T13:33:08.144Z,3.33
2019-06-08T13:35:40.850Z,9.28
2019-06-08T13:38:14.689Z,8.23
2019-06-08T13:40:48.445Z,3.42
2019-06-08T13:43:22.696Z,4.60
2019-06-08T13:45:58.047Z,13.85
2019-06-08T13:48:29.920Z,13.18
2019-06-08T13:51:02.349Z,5.08
2019-06-08T13:53:34.990Z,7.90
2019-06-08T13:56:07.982Z,12.07
2019-06-08T13:58:40.535Z,9.63
2019-06-08T14:01:13.422Z,8.20
2019-06-08T14:03:49.788Z,6.80
2019-06-08T14:06:21.795Z,3.58
2019-06-08T14:08:54.900Z,6.03
2019-06-08T14:11:28.266Z,10.45
2019-06-08T14:14:02.311Z,3.92
2019-06-08T14:16:35.070Z,6.20
2019-06-08T14:19:08.559Z,4.50
2019-06-08T14:21:42.038Z,7.42
2019-06-08T14:24:14.745Z,4.37
2019-06-08T14:26:48.592Z,12.37
2019-06-08T14:29:22.937Z,5.05
2019-06-08T14:31:57.825Z,14.05
2019-06-08T14:34:31.215Z,4.58
2019-06-08T14:37:05.285Z,14.75
2019-06-08T14:39:38.091Z,3.77
2019-06-08T14:42:11.047Z,5.40
2019-06-08T14:44:43.825Z,12.15
2019-06-08T14:47:17.003Z,2.95
2019-06-08T14:49:49.661Z,4.15
2019-06-08T14:52:23.664Z,4.62
2019-06-08T14:54:58.629Z,16.95
2019-06-08T14:57:31.390Z,12.05
2019-06-08T15:00:09.691Z,4.20
2019-06-08T15:02:39.691Z,5.45
2019-06-08T15:05:12.560Z,4.40
2019-06-08T15:07:47.415Z,4.42
2019-06-08T15:10:21.477Z,3.25
2019-06-08T15:12:54.275Z,5.72
2019-06-08T15:15:30.075Z,8.05
2019-06-08T15:18:00.930Z,6.53
2019-06-08T15:20:33.471Z,7.87
2019-06-08T15:23:08.294Z,5.08
2019-06-08T15:25:40.610Z,6.67
2019-06-08T15:28:13.421Z,7.42
2019-06-08T15:30:46.255Z,4.92
2019-06-08T15:33:21.458Z,5.92
2019-06-08T15:35:53.142Z,5.95
2019-06-08T15:38:26.052Z,7.72
2019-06-08T15:40:58.630Z,4.03
2019-06-08T15:43:36.809Z,4.58
2019-06-08T15:46:08.330Z,8.50
2019-06-08T15:48:40.616Z,8.70
2019-06-08T15:51:14.215Z,6.60
2019-06-08T15:53:47.707Z,5.10
2019-06-08T15:56:34.804Z,11.70
2019-06-08T15:58:54.875Z,6.70
2019-06-08T16:01:27.488Z,4.62
2019-06-08T16:04:03.374Z,3.10
2019-06-08T16:06:34.585Z,9.38
2019-06-08T16:09:09.685Z,2.05
2019-06-08T16:11:42.385Z,5.87
2019-06-08T16:14:15.265Z,6.30
2019-06-08T16:16:47.880Z,6.22
2019-06-08T16:19:20.605Z,4.80
2019-06-08T16:21:53.546Z,7.70
2019-06-08T16:24:27.681Z,7.33
2019-06-08T16:27:00.445Z,2.83
2019-06-08T16:29:33.365Z,10.88
2019-06-08T16:32:07.595Z,9.63
2019-06-08T16:34:40.460Z,5.00
2019-06-08T16:37:13.094Z,1.62
2019-06-08T16:39:45.765Z,5.03
2019-06-08T16:42:18.136Z,8.63
2019-06-08T16:44:50.694Z,15.58
2019-06-08T16:47:23.452Z,6.08
2019-06-08T16:49:56.530Z,3.90
2019-06-08T16:52:30.356Z,5.05
2019-06-08T16:55:05.605Z,4.12
2019-06-08T16:57:39.912Z,12.68
2019-06-08T17:02:47.202Z,3.77
2019-06-08T17:05:19.963Z,5.45
2019-06-08T17:07:52.540Z,1.95
2019-06-08T17:10:25.029Z,8.68
2019-06-08T17:12:57.721Z,23.57
2019-06-08T17:15:31.866Z,6.00
2019-06-08T17:18:04.585Z,13.40
2019-06-08T17:20:38.438Z,8.50
2019-06-08T17:23:11.580Z,8.53
2019-06-08T17:25:44.715Z,5.37
2019-06-08T17:28:17.367Z,11.25
2019-06-08T17:30:50.091Z,11.97
2019-06-08T17:33:22.815Z,8.63
2019-06-08T17:35:55.560Z,11.85
2019-06-08T17:38:28.370Z,13.80
2019-06-08T17:41:00.830Z,6.42
2019-06-08T17:43:34.203Z,20.23
2019-06-08T17:46:07.015Z,14.47
2019-06-08T17:48:40.723Z,28.23
2019-06-08T17:51:13.300Z,19.02
2019-06-08T17:53:46.022Z,10.40
2019-06-08T17:56:18.617Z,15.58
2019-06-08T17:58:51.345Z,9.15
2019-06-08T18:01:24.361Z,13.90
2019-06-08T18:03:57.515Z,10.38
2019-06-08T18:06:30.564Z,10.28
2019-06-08T18:09:03.590Z,5.65
2019-06-08T18:11:40.187Z,8.80
2019-06-08T18:14:11.955Z,9.55
2019-06-08T18:16:45.286Z,11.20
2019-06-08T18:19:28.178Z,12.68
2019-06-08T18:22:04.334Z,11.38
2019-06-08T18:24:37.911Z,11.35
2019-06-08T18:27:09.431Z,10.43
2019-06-08T18:29:42.935Z,5.58
2019-06-08T18:32:18.118Z,8.33
2019-06-08T18:34:51.080Z,15.32
2019-06-08T18:37:23.865Z,8.98
2019-06-08T18:39:57.862Z,16.97
2019-06-08T18:42:30.610Z,10.68
2019-06-08T18:45:03.620Z,7.00
2019-06-08T18:47:38.968Z,12.23
2019-06-08T18:50:12.385Z,15.50
2019-06-08T18:52:47.272Z,10.82
2019-06-08T18:55:19.961Z,4.62
2019-06-08T18:57:52.848Z,12.60
2019-06-08T19:00:43.016Z,11.35
2019-06-08T19:03:13.636Z,18.30
2019-06-08T19:05:49.871Z,19.17
2019-06-08T19:08:21.030Z,7.03
2019-06-08T19:10:54.041Z,14.78
2019-06-08T19:13:27.107Z,24.07
2019-06-08T19:16:00.012Z,14.75
2019-06-08T19:18:32.705Z,12.25
2019-06-08T19:21:07.628Z,14.95
2019-06-08T19:23:41.960Z,26.00
2019-06-08T19:26:14.135Z,29.07
2019-06-08T19:28:53.385Z,18.92
2019-06-08T19:31:21.370Z,15.55
2019-06-08T19:33:53.906Z,23.27
2019-06-08T19:36:28.407Z,20.55
2019-06-08T19:39:01.116Z,45.45
2019-06-08T19:41:37.632Z,15.88
2019-06-08T19:44:09.845Z,20.10
2019-06-08T19:46:42.536Z,15.28
2019-06-08T19:49:17.183Z,9.33
2019-06-08T19:51:53.572Z,14.35
2019-06-08T19:54:24.331Z,7.22
2019-06-08T19:56:57.647Z,17.57
2019-06-08T19:59:30.785Z,28.25
2019-06-08T20:02:03.635Z,15.95
2019-06-08T20:04:38.463Z,16.10
2019-06-08T20:07:10.930Z,24.37
2019-06-08T20:09:43.645Z,31.73
2019-06-08T20:12:18.487Z,37.48
2019-06-08T20:14:51.094Z,37.10
2019-06-08T20:17:23.850Z,21.65
2019-06-08T20:19:58.386Z,26.82
2019-06-08T20:22:31.250Z,18.57
2019-06-08T20:25:07.203Z,21.23
2019-06-08T20:27:38.800Z,14.13
2019-06-08T20:30:12.290Z,20.77
2019-06-08T20:32:46.604Z,29.85
2019-06-08T20:35:19.859Z,24.80
2019-06-08T20:37:53.900Z,31.47
2019-06-08T20:40:27.938Z,41.97
2019-06-08T20:43:01.341Z,63.27
2019-06-08T20:45:34.220Z,54.40
2019-06-08T20:48:06.872Z,45.07
2019-06-08T20:50:40.000Z,35.30
2019-06-08T20:53:12.990Z,37.23
2019-06-08T20:55:48.164Z,39.77
2019-06-08T20:58:20.115Z,39.40
2019-06-08T21:00:53.107Z,38.73
2019-06-08T21:03:27.990Z,36.17
2019-06-08T21:06:01.030Z,40.93
2019-06-08T21:08:33.700Z,46.27
2019-06-08T21:11:08.515Z,40.53
2019-06-08T21:13:41.340Z,60.37
2019-06-08T21:16:14.340Z,66.97
2019-06-08T21:18:47.220Z,49.13
2019-06-08T21:21:20.086Z,43.60
2019-06-08T21:23:55.522Z,42.27
2019-06-08T21:26:26.694Z,32.37
2019-06-08T21:29:00.367Z,37.03
2019-06-08T21:31:33.890Z,24.00
2019-06-08T21:34:07.409Z,21.57
2019-06-08T21:36:40.165Z,15.10
2019-06-08T21:39:13.210Z,19.77
2019-06-08T21:41:49.756Z,29.13
2019-06-08T21:44:19.735Z,33.23
2019-06-08T21:46:53.389Z,29.63
2019-06-08T21:49:27.708Z,21.87
2019-06-08T21:52:01.285Z,22.87
2019-06-08T21:54:34.341Z,21.97
2019-06-08T21:57:09.556Z,17.37
2019-06-08T21:59:41.695Z,24.47
2019-06-08T22:02:14.622Z,25.27
2019-06-08T22:04:47.850Z,23.87
2019-06-08T22:07:20.750Z,25.13
2019-06-08T22:09:54.140Z,16.33
2019-06-08T22:12:27.015Z,21.50
2019-06-08T22:15:00.998Z,19.17
2019-06-08T22:17:34.420Z,15.80
2019-06-08T22:20:08.407Z,11.43
2019-06-08T22:22:42.265Z,14.77
2019-06-08T22:25:17.337Z,15.27
2019-06-08T22:27:51.061Z,14.27
2019-06-08T22:30:38.290Z,18.80
2019-06-08T22:32:59.858Z,23.50
2019-06-08T22:35:32.725Z,29.77
2019-06-08T22:38:08.539Z,26.47
2019-06-08T22:40:40.331Z,24.90
2019-06-08T22:43:13.274Z,30.10
2019-06-08T22:45:48.163Z,33.20
2019-06-08T22:48:20.771Z,39.13
2019-06-08T22:50:54.885Z,36.30
2019-06-08T22:53:27.787Z,29.37
2019-06-08T22:56:02.437Z,22.43
2019-06-08T22:58:37.080Z,26.33
2019-06-08T23:01:11.586Z,24.60
2019-06-08T23:03:44.280Z,24.70
2019-06-08T23:06:17.801Z,28.03
2019-06-08T23:08:50.531Z,30.90
2019-06-08T23:11:23.496Z,25.37
2019-06-08T23:13:58.996Z,24.83
2019-06-08T23:16:30.840Z,32.37
2019-06-08T23:19:05.127Z,21.50
2019-06-08T23:21:38.362Z,24.53
2019-06-08T23:24:11.356Z,27.47
2019-06-08T23:26:44.066Z,27.67
2019-06-08T23:29:17.860Z,24.87
2019-06-08T23:31:51.028Z,35.10
2019-06-08T23:34:23.743Z,32.57
2019-06-08T23:37:00.900Z,23.43
2019-06-08T23:39:31.232Z,26.03
2019-06-08T23:42:03.772Z,24.27
2019-06-08T23:44:37.748Z,19.47
2019-06-08T23:47:10.606Z,13.53
2019-06-08T23:49:43.422Z,19.40
2019-06-08T23:52:17.826Z,12.53
2019-06-08T23:54:51.130Z,25.33
2019-06-08T23:57:23.746Z,24.03
2019-06-08T23:59:59.382Z,24.17
